createdAt,value
2023-05-19T00:00:31.181Z,13.67
2023-05-19T00:03:40.831Z,13.65
2023-05-19T00:06:51.059Z,13.65
2023-05-19T00:09:54.234Z,13.68
2023-05-19T00:12:57.790Z,13.69
2023-05-19T00:16:00.888Z,13.71
2023-05-19T00:19:05.765Z,13.71
2023-05-19T00:22:08.303Z,13.69
2023-05-19T00:25:10.906Z,13.63
2023-05-19T00:28:13.521Z,13.60
2023-05-19T00:31:18.678Z,13.54
2023-05-19T00:34:21.283Z,13.48
2023-05-19T00:37:23.979Z,13.47
2023-05-19T00:40:28.114Z,13.45
2023-05-19T00:43:31.230Z,13.43
2023-05-19T00:46:34.284Z,13.40
2023-05-19T00:49:37.159Z,13.36
2023-05-19T00:52:39.868Z,13.34
2023-05-19T00:55:43.001Z,13.28
2023-05-19T00:58:50.835Z,13.24
2023-05-19T01:01:54.703Z,13.22
2023-05-19T01:04:57.507Z,13.14
2023-05-19T01:08:00.116Z,13.10
2023-05-19T01:11:03.463Z,13.12
2023-05-19T01:14:06.153Z,13.20
2023-05-19T01:17:31.613Z,13.25
2023-05-19T01:20:41.785Z,13.29
2023-05-19T01:23:58.236Z,13.38
2023-05-19T01:27:20.449Z,13.38
2023-05-19T01:30:40.047Z,13.36
2023-05-19T01:33:43.904Z,13.35
2023-05-19T01:36:49.968Z,13.29
2023-05-19T01:39:53.484Z,13.31
2023-05-19T01:42:58.328Z,13.27
2023-05-19T01:46:02.804Z,13.23
2023-05-19T01:49:10.626Z,13.19
2023-05-19T01:52:13.249Z,13.21
2023-05-19T01:55:17.206Z,13.19
2023-05-19T01:58:20.800Z,13.13
2023-05-19T02:01:30.069Z,13.12
2023-05-19T02:04:42.427Z,13.16
2023-05-19T02:07:55.755Z,13.12
2023-05-19T02:11:07.378Z,13.13
2023-05-19T02:14:18.287Z,13.18
2023-05-19T02:17:23.454Z,13.22
2023-05-19T02:20:26.741Z,13.24
2023-05-19T02:23:29.423Z,13.20
2023-05-19T02:26:33.224Z,13.19
2023-05-19T02:29:35.911Z,13.19
2023-05-19T02:32:38.564Z,13.16
2023-05-19T02:35:41.150Z,13.19
2023-05-19T02:38:43.793Z,13.22
2023-05-19T02:41:46.402Z,13.21
2023-05-19T02:44:49.784Z,13.13
2023-05-19T02:47:53.016Z,13.08
2023-05-19T02:50:57.461Z,13.08
2023-05-19T02:54:00.094Z,13.06
2023-05-19T02:57:02.833Z,13.03
2023-05-19T03:00:06.958Z,12.98
2023-05-19T03:03:11.748Z,12.95
2023-05-19T03:06:15.681Z,12.95
2023-05-19T03:09:18.742Z,12.91
2023-05-19T03:12:21.972Z,12.95
2023-05-19T03:15:24.763Z,12.93
2023-05-19T03:18:28.059Z,12.94
2023-05-19T03:21:32.228Z,12.98
2023-05-19T03:24:34.856Z,13.05
2023-05-19T03:27:39.224Z,13.11
2023-05-19T03:30:47.394Z,13.10
2023-05-19T03:33:54.412Z,13.17
2023-05-19T03:36:58.085Z,13.19
2023-05-19T03:40:02.151Z,13.24
2023-05-19T03:43:05.455Z,13.32
2023-05-19T03:46:12.002Z,13.37
2023-05-19T03:49:17.746Z,13.39
2023-05-19T03:52:49.588Z,13.43
2023-05-19T03:56:18.814Z,13.50
2023-05-19T03:59:21.503Z,13.47
2023-05-19T04:02:25.719Z,13.54
2023-05-19T04:05:28.358Z,13.60
2023-05-19T04:08:31.124Z,13.65
2023-05-19T04:11:34.761Z,13.71
2023-05-19T04:14:37.395Z,13.75
2023-05-19T04:17:40.368Z,13.68
2023-05-19T04:20:43.053Z,13.77
2023-05-19T04:23:45.773Z,13.77
2023-05-19T04:26:48.392Z,13.89
2023-05-19T04:29:53.076Z,13.73
2023-05-19T04:32:58.240Z,13.93
2023-05-19T04:36:05.634Z,14.04
2023-05-19T04:39:12.133Z,14.04
2023-05-19T04:42:21.450Z,14.19
2023-05-19T04:45:26.201Z,14.24
2023-05-19T04:48:34.162Z,14.35
2023-05-19T04:51:36.769Z,14.30
2023-05-19T04:54:40.299Z,14.43
2023-05-19T04:57:44.212Z,14.56
2023-05-19T05:00:47.180Z,14.72
2023-05-19T05:03:50.092Z,14.93
2023-05-19T05:06:52.667Z,15.13
2023-05-19T05:09:57.898Z,15.36
2023-05-19T05:13:02.050Z,15.50
2023-05-19T05:16:06.675Z,15.62
2023-05-19T05:19:09.804Z,15.80
2023-05-19T05:22:15.208Z,15.93
2023-05-19T05:25:18.420Z,16.04
2023-05-19T05:28:21.557Z,16.23
2023-05-19T05:31:24.212Z,16.45
2023-05-19T05:34:27.344Z,16.49
2023-05-19T05:37:31.038Z,16.63
2023-05-19T05:40:33.614Z,16.82
2023-05-19T05:43:36.973Z,16.89
2023-05-19T05:46:41.343Z,16.88
2023-05-19T05:49:48.220Z,16.75
2023-05-19T05:52:53.951Z,16.62
2023-05-19T05:55:57.481Z,16.59
2023-05-19T05:59:04.410Z,16.30
2023-05-19T06:02:07.184Z,16.38
2023-05-19T06:05:12.507Z,16.33
2023-05-19T06:08:15.563Z,16.43
2023-05-19T06:11:19.824Z,16.60
2023-05-19T06:14:23.599Z,16.72
2023-05-19T06:17:53.248Z,16.79
2023-05-19T06:20:56.179Z,16.94
2023-05-19T06:23:58.911Z,17.11
2023-05-19T06:27:02.160Z,17.18
2023-05-19T06:30:05.277Z,16.92
2023-05-19T06:33:14.494Z,16.83
2023-05-19T06:36:17.324Z,17.02
2023-05-19T06:39:21.145Z,17.11
2023-05-19T06:42:25.332Z,17.26
2023-05-19T06:45:34.544Z,17.46
2023-05-19T06:48:39.574Z,17.54
2023-05-19T06:51:43.709Z,17.67
2023-05-19T06:54:46.529Z,17.76
2023-05-19T06:57:49.147Z,18.27
2023-05-19T07:00:53.591Z,18.61
2023-05-19T07:03:59.079Z,18.95
2023-05-19T07:07:01.929Z,18.80
2023-05-19T07:10:07.974Z,18.97
2023-05-19T07:13:10.532Z,19.26
2023-05-19T07:16:13.152Z,19.46
2023-05-19T07:19:16.233Z,19.57
2023-05-19T07:22:21.123Z,19.55
2023-05-19T07:25:23.930Z,19.50
2023-05-19T07:28:26.686Z,19.20
2023-05-19T07:31:30.545Z,19.25
2023-05-19T07:34:33.160Z,19.20
2023-05-19T07:37:36.195Z,19.30
2023-05-19T07:40:38.842Z,19.27
2023-05-19T07:43:41.824Z,19.29
2023-05-19T07:46:44.546Z,19.32
2023-05-19T07:49:49.691Z,19.53
2023-05-19T07:52:53.729Z,19.75
2023-05-19T07:55:58.686Z,19.97
2023-05-19T07:59:02.495Z,20.15
2023-05-19T08:02:05.273Z,20.32
2023-05-19T08:05:09.790Z,20.37
2023-05-19T08:08:12.897Z,20.49
2023-05-19T08:11:15.521Z,20.70
2023-05-19T08:14:18.313Z,20.91
2023-05-19T08:17:20.972Z,20.97
2023-05-19T08:20:24.415Z,21.26
2023-05-19T08:23:28.307Z,21.26
2023-05-19T08:26:30.899Z,21.03
2023-05-19T08:29:33.564Z,21.46
2023-05-19T08:32:36.511Z,21.65
2023-05-19T08:35:39.059Z,21.76
2023-05-19T08:38:41.664Z,21.73
2023-05-19T08:41:44.655Z,21.55
2023-05-19T08:44:47.244Z,21.36
2023-05-19T08:47:51.521Z,21.47
2023-05-19T08:50:58.541Z,21.62
2023-05-19T08:54:15.992Z,21.96
2023-05-19T08:57:19.191Z,22.22
2023-05-19T09:00:22.768Z,22.62
2023-05-19T09:03:26.691Z,22.85
2023-05-19T09:06:32.424Z,23.32
2023-05-19T09:09:36.221Z,23.48
2023-05-19T09:12:38.809Z,23.68
2023-05-19T09:15:43.006Z,23.29
2023-05-19T09:18:58.480Z,23.20
2023-05-19T09:22:05.123Z,23.00
2023-05-19T09:25:20.265Z,22.60
2023-05-19T09:28:33.776Z,22.60
2023-05-19T09:31:36.430Z,22.75
2023-05-19T09:34:42.200Z,23.29
2023-05-19T09:37:44.796Z,23.97
2023-05-19T09:40:49.896Z,23.77
2023-05-19T09:43:56.341Z,23.36
2023-05-19T09:47:00.278Z,23.07
2023-05-19T09:50:04.647Z,23.07
2023-05-19T09:53:07.798Z,23.29
2023-05-19T09:56:11.125Z,24.19
2023-05-19T09:59:16.370Z,24.73
2023-05-19T10:02:21.789Z,24.92
2023-05-19T10:05:24.624Z,25.59
2023-05-19T10:08:30.623Z,25.47
2023-05-19T10:11:33.852Z,24.87
2023-05-19T10:14:38.316Z,24.65
2023-05-19T10:17:43.653Z,24.71
2023-05-19T10:20:48.792Z,25.00
2023-05-19T10:23:51.534Z,25.55
2023-05-19T10:27:05.609Z,25.85
2023-05-19T10:30:16.355Z,26.12
2023-05-19T10:33:21.218Z,26.17
2023-05-19T10:36:39.766Z,26.04
2023-05-19T10:39:44.383Z,25.78
2023-05-19T10:44:35.856Z,26.65
2023-05-19T10:47:41.809Z,27.16
2023-05-19T10:50:46.829Z,27.48
2023-05-19T10:53:50.303Z,27.18
2023-05-19T10:56:57.752Z,27.55
2023-05-19T11:00:11.623Z,28.52
2023-05-19T11:03:19.156Z,29.42
2023-05-19T11:06:25.192Z,30.22
2023-05-19T11:09:37.965Z,29.13
2023-05-19T11:12:45.672Z,30.64
2023-05-19T11:15:49.942Z,32.44
2023-05-19T11:18:55.156Z,28.98
2023-05-19T11:22:08.918Z,28.03
2023-05-19T11:25:11.527Z,32.75
2023-05-19T11:28:25.757Z,33.84
2023-05-19T11:31:30.920Z,35.65
2023-05-19T11:34:34.040Z,37.13
2023-05-19T11:37:37.186Z,38.06
2023-05-19T11:40:42.291Z,38.38
2023-05-19T11:43:47.863Z,38.62
2023-05-19T11:46:50.862Z,39.47
2023-05-19T11:49:56.674Z,40.39
2023-05-19T11:53:01.394Z,40.94
2023-05-19T11:56:05.720Z,36.54
2023-05-19T11:59:10.971Z,32.67
2023-05-19T12:02:14.087Z,36.50
2023-05-19T12:05:27.257Z,38.44
2023-05-19T12:08:30.177Z,39.26
2023-05-19T12:11:33.262Z,39.28
2023-05-19T12:14:36.201Z,37.31
2023-05-19T12:17:39.166Z,39.85
2023-05-19T12:20:42.384Z,40.72
2023-05-19T12:23:45.259Z,40.60
2023-05-19T12:26:51.987Z,41.44
2023-05-19T12:30:00.260Z,41.31
2023-05-19T12:33:03.690Z,35.87
2023-05-19T12:36:07.745Z,32.67
2023-05-19T12:39:11.696Z,31.21
2023-05-19T12:42:16.165Z,30.08
2023-05-19T12:45:21.615Z,32.43
2023-05-19T12:48:24.354Z,36.25
2023-05-19T12:51:26.963Z,38.87
2023-05-19T12:54:34.471Z,38.89
2023-05-19T12:57:39.091Z,39.86
2023-05-19T13:00:43.834Z,40.24
2023-05-19T13:03:48.657Z,40.83
2023-05-19T13:06:53.869Z,35.39
2023-05-19T13:09:58.066Z,35.70
2023-05-19T13:13:01.142Z,31.85
2023-05-19T13:16:04.988Z,33.65
2023-05-19T13:19:21.207Z,36.35
2023-05-19T13:22:28.596Z,34.20
2023-05-19T13:25:32.849Z,33.42
2023-05-19T13:28:35.629Z,37.27
2023-05-19T13:31:38.508Z,36.46
2023-05-19T13:34:42.516Z,36.80
2023-05-19T13:37:46.513Z,38.40
2023-05-19T13:40:49.126Z,39.59
2023-05-19T13:43:53.151Z,40.24
2023-05-19T13:46:57.248Z,40.58
2023-05-19T13:50:00.353Z,40.78
2023-05-19T13:53:03.735Z,40.96
2023-05-19T13:56:07.172Z,41.12
2023-05-19T13:59:09.749Z,40.95
2023-05-19T14:02:12.851Z,40.30
2023-05-19T14:05:15.520Z,38.76
2023-05-19T14:08:18.955Z,34.33
2023-05-19T14:11:21.901Z,32.30
2023-05-19T14:14:27.498Z,31.01
2023-05-19T14:17:30.089Z,29.80
2023-05-19T14:20:33.104Z,29.38
2023-05-19T14:23:35.921Z,28.53
2023-05-19T14:26:38.618Z,27.80
2023-05-19T14:29:43.390Z,27.66
2023-05-19T14:32:46.022Z,27.24
2023-05-19T14:35:48.615Z,26.65
2023-05-19T14:38:51.158Z,26.54
2023-05-19T14:41:53.813Z,26.27
2023-05-19T14:44:56.380Z,26.72
2023-05-19T14:47:59.218Z,27.17
2023-05-19T14:51:01.947Z,27.22
2023-05-19T14:54:04.726Z,27.26
2023-05-19T14:57:08.241Z,26.57
2023-05-19T15:00:11.312Z,26.13
2023-05-19T15:03:14.905Z,26.09
2023-05-19T15:06:17.620Z,25.88
2023-05-19T15:09:20.165Z,26.16
2023-05-19T15:12:22.792Z,26.58
2023-05-19T15:15:25.467Z,26.74
2023-05-19T15:18:28.062Z,26.50
2023-05-19T15:21:31.341Z,26.60
2023-05-19T15:24:34.132Z,26.46
2023-05-19T15:27:36.782Z,26.35
2023-05-19T15:30:39.984Z,26.19
2023-05-19T15:33:42.788Z,25.72
2023-05-19T15:36:45.820Z,25.70
2023-05-19T15:39:48.559Z,25.71
2023-05-19T15:42:51.155Z,25.65
2023-05-19T15:45:55.350Z,25.62
2023-05-19T15:48:59.291Z,25.67
2023-05-19T15:52:04.081Z,25.68
2023-05-19T15:55:07.510Z,25.35
2023-05-19T15:58:10.362Z,25.37
2023-05-19T16:01:18.232Z,25.24
2023-05-19T16:04:21.302Z,25.23
2023-05-19T16:07:24.369Z,25.17
2023-05-19T16:10:27.068Z,25.22
2023-05-19T16:13:31.017Z,24.93
2023-05-19T16:16:33.821Z,24.73
2023-05-19T16:19:36.578Z,24.60
2023-05-19T16:22:39.442Z,24.51
2023-05-19T16:25:42.085Z,24.38
2023-05-19T16:28:44.673Z,24.29
2023-05-19T16:31:47.340Z,24.23
2023-05-19T16:34:50.210Z,24.06
2023-05-19T16:37:53.853Z,23.78
2023-05-19T16:40:56.633Z,23.67
2023-05-19T16:43:59.452Z,23.57
2023-05-19T16:47:02.034Z,23.32
2023-05-19T16:50:04.828Z,23.16
2023-05-19T16:53:07.446Z,23.11
2023-05-19T16:56:10.390Z,23.04
2023-05-19T16:59:13.921Z,22.99
2023-05-19T17:02:17.203Z,22.92
2023-05-19T17:05:20.196Z,22.81
2023-05-19T17:08:23.249Z,22.69
2023-05-19T17:11:27.416Z,22.57
2023-05-19T17:14:30.624Z,22.42
2023-05-19T17:17:33.836Z,22.31
2023-05-19T17:20:36.988Z,22.23
2023-05-19T17:23:40.485Z,22.11
2023-05-19T17:26:43.436Z,21.97
2023-05-19T17:29:46.455Z,21.86
2023-05-19T17:32:49.628Z,21.80
2023-05-19T17:35:52.722Z,21.70
2023-05-19T17:38:55.593Z,21.64
2023-05-19T17:41:58.355Z,21.51
2023-05-19T17:45:04.428Z,21.42
2023-05-19T17:48:07.275Z,21.32
2023-05-19T17:51:09.958Z,21.18
2023-05-19T17:54:13.122Z,21.10
2023-05-19T17:57:17.841Z,20.97
2023-05-19T18:00:21.207Z,20.81
2023-05-19T18:03:24.827Z,20.79
2023-05-19T18:06:29.619Z,20.69
2023-05-19T18:09:36.639Z,20.64
2023-05-19T18:12:39.489Z,20.55
2023-05-19T18:15:43.448Z,20.52
2023-05-19T18:18:50.578Z,20.40
2023-05-19T18:21:53.614Z,20.33
2023-05-19T18:24:59.931Z,20.15
2023-05-19T18:28:02.617Z,20.07
2023-05-19T18:31:06.194Z,19.97
2023-05-19T18:34:08.986Z,19.89
2023-05-19T18:37:12.337Z,19.77
2023-05-19T18:40:15.076Z,19.67
2023-05-19T18:43:18.699Z,19.61
2023-05-19T18:46:22.127Z,19.52
2023-05-19T18:49:25.486Z,19.46
2023-05-19T18:52:29.180Z,19.42
2023-05-19T18:55:32.148Z,19.38
2023-05-19T18:58:36.108Z,19.33
2023-05-19T19:01:39.114Z,19.27
2023-05-19T19:04:42.186Z,19.24
2023-05-19T19:07:45.161Z,19.25
2023-05-19T19:10:50.491Z,19.19
2023-05-19T19:13:55.593Z,19.16
2023-05-19T19:16:58.236Z,19.10
2023-05-19T19:20:01.179Z,19.13
2023-05-19T19:23:06.971Z,19.11
2023-05-19T19:26:09.858Z,19.11
2023-05-19T19:29:12.484Z,19.09
2023-05-19T19:32:15.071Z,19.13
2023-05-19T19:35:17.871Z,19.17
2023-05-19T19:38:21.655Z,19.16
2023-05-19T19:41:25.422Z,19.18
2023-05-19T19:44:28.248Z,19.18
2023-05-19T19:47:31.361Z,19.19
2023-05-19T19:50:34.740Z,19.17
2023-05-19T19:53:37.698Z,19.16
2023-05-19T19:56:40.528Z,19.14
2023-05-19T19:59:43.857Z,19.14
2023-05-19T20:05:56.466Z,19.10
2023-05-19T20:08:59.829Z,19.12
2023-05-19T20:12:02.590Z,19.14
2023-05-19T20:15:07.575Z,19.15
2023-05-19T20:18:11.335Z,19.19
2023-05-19T20:21:15.078Z,19.17
2023-05-19T20:24:17.881Z,19.14
2023-05-19T20:27:20.446Z,19.10
2023-05-19T20:30:23.247Z,19.01
2023-05-19T20:33:26.538Z,18.94
2023-05-19T20:36:29.384Z,19.01
2023-05-19T20:39:32.072Z,19.05
2023-05-19T20:42:34.688Z,19.08
2023-05-19T20:45:37.767Z,19.09
2023-05-19T20:48:40.822Z,18.99
2023-05-19T20:51:43.428Z,18.92
2023-05-19T20:54:46.586Z,18.95
2023-05-19T20:57:49.153Z,18.98
2023-05-19T21:00:57.739Z,18.96
2023-05-19T21:04:01.356Z,18.93
2023-05-19T21:07:04.107Z,18.86
2023-05-19T21:10:07.584Z,18.81
2023-05-19T21:13:10.216Z,18.62
2023-05-19T21:16:12.997Z,18.54
2023-05-19T21:19:15.749Z,18.46
2023-05-19T21:22:18.333Z,18.40
2023-05-19T21:25:20.919Z,18.33
2023-05-19T21:28:23.449Z,18.18
2023-05-19T21:31:26.197Z,18.12
2023-05-19T21:34:28.912Z,18.08
2023-05-19T21:37:31.825Z,17.96
2023-05-19T21:40:34.787Z,17.89
2023-05-19T21:43:37.732Z,17.88
2023-05-19T21:46:40.252Z,18.00
2023-05-19T21:49:43.015Z,17.94
2023-05-19T21:52:47.082Z,17.90
2023-05-19T21:55:49.685Z,17.81
2023-05-19T21:58:52.363Z,17.72
2023-05-19T22:01:54.937Z,17.67
2023-05-19T22:04:57.700Z,17.58
2023-05-19T22:08:00.781Z,17.53
2023-05-19T22:11:03.460Z,17.46
2023-05-19T22:14:06.079Z,17.43
2023-05-19T22:17:09.008Z,17.35
2023-05-19T22:20:12.101Z,17.37
2023-05-19T22:23:15.163Z,17.35
2023-05-19T22:26:17.740Z,17.35
2023-05-19T22:29:20.912Z,17.35
2023-05-19T22:32:23.662Z,17.33
2023-05-19T22:35:26.351Z,17.30
2023-05-19T22:38:29.458Z,17.25
2023-05-19T22:41:32.422Z,17.18
2023-05-19T22:44:35.847Z,17.12
2023-05-19T22:47:38.559Z,17.10
2023-05-19T22:50:41.477Z,17.07
2023-05-19T22:53:46.634Z,17.06
2023-05-19T22:56:49.309Z,17.01
2023-05-19T22:59:51.871Z,17.02
2023-05-19T23:02:55.776Z,17.01
2023-05-19T23:05:58.470Z,16.96
2023-05-19T23:09:02.332Z,16.92
2023-05-19T23:12:06.566Z,16.96
2023-05-19T23:15:11.111Z,16.95
2023-05-19T23:18:15.171Z,16.84
2023-05-19T23:21:19.468Z,16.79
2023-05-19T23:24:21.932Z,16.79
2023-05-19T23:27:24.977Z,16.78
2023-05-19T23:30:31.509Z,16.76
2023-05-19T23:33:36.082Z,16.71
2023-05-19T23:36:38.787Z,16.65
2023-05-19T23:39:41.367Z,16.57
2023-05-19T23:42:44.725Z,16.48
2023-05-19T23:45:47.381Z,16.49
2023-05-19T23:48:51.258Z,16.49
2023-05-19T23:51:55.640Z,16.42
2023-05-19T23:54:58.344Z,16.38
2023-05-19T23:58:02.041Z,16.37
